Time;durP1;ratioP1;P1;durP2;ratioP2;P2;SDS_P1;SDS_P2;PMS_P1;PMS_P2;Temp;Humidity;BMP_temperature;BMP_pressure;BME280_temperature;BME280_humidity;BME280_pressure;Samples;Min_cycle;Max_cycle;Signal;HPM_P1;HPM_P2
2022/08/27 00:00:31;;;;;;;6.60;3.08;;;15.30;99.90;;;;;;4863281;29;20494;-69
2022/08/27 00:02:57;;;;;;;5.43;2.97;;;15.40;99.90;;;;;;4878700;29;20049;-69
2022/08/27 00:05:23;;;;;;;6.72;2.80;;;15.40;99.90;;;;;;4879605;29;20410;-69
2022/08/27 00:07:49;;;;;;;4.95;2.90;;;15.40;99.90;;;;;;4879726;29;20071;-68
2022/08/27 00:10:19;;;;;;;7.57;3.22;;;15.30;99.90;;;;;;4878793;29;20498;-68
2022/08/27 00:12:47;;;;;;;5.07;2.60;;;15.40;99.90;;;;;;4875642;29;20053;-68
2022/08/27 00:15:14;;;;;;;5.40;2.95;;;15.40;99.90;;;;;;4849122;29;20180;-68
2022/08/27 00:17:41;;;;;;;5.45;3.03;;;15.40;99.90;;;;;;4879622;29;20076;-68
2022/08/27 00:20:07;;;;;;;6.55;3.28;;;15.40;99.90;;;;;;4877746;29;20059;-68
2022/08/27 00:22:33;;;;;;;8.00;3.00;;;15.40;99.90;;;;;;4879431;29;20056;-68
2022/08/27 00:25:00;;;;;;;5.57;2.80;;;15.40;99.90;;;;;;4879825;29;20053;-68
2022/08/27 00:27:25;;;;;;;5.05;3.30;;;15.40;99.90;;;;;;4879661;29;20164;-68
2022/08/27 00:29:54;;;;;;;5.15;3.08;;;15.40;99.90;;;;;;4869641;29;20065;-69
2022/08/27 00:32:19;;;;;;;4.97;2.95;;;15.40;99.90;;;;;;4859489;29;20477;-67
2022/08/27 00:34:45;;;;;;;6.25;2.95;;;15.40;99.90;;;;;;4876029;29;20132;-67
2022/08/27 00:37:11;;;;;;;5.63;2.97;;;15.40;99.90;;;;;;4879216;29;20061;-67
2022/08/27 00:39:38;;;;;;;6.05;3.15;;;15.40;99.90;;;;;;4878600;29;20486;-68
2022/08/27 00:42:05;;;;;;;8.15;3.30;;;15.30;99.90;;;;;;4879465;29;20061;-67
2022/08/27 00:44:39;;;;;;;6.40;3.70;;;15.40;99.90;;;;;;4879494;29;20405;-68
2022/08/27 00:50:07;;;;;;;7.75;3.45;;;15.30;99.90;;;;;;4876402;29;20514;-68
2022/08/27 00:52:40;;;;;;;7.05;3.72;;;15.30;99.90;;;;;;4878811;29;20132;-68
2022/08/27 00:55:10;;;;;;;4.03;2.92;;;15.40;99.90;;;;;;4879255;29;20088;-68
2022/08/27 00:57:39;;;;;;;6.20;3.13;;;15.40;99.90;;;;;;4879433;29;20107;-68
2022/08/27 01:00:09;;;;;;;8.25;3.78;;;15.40;99.90;;;;;;4878341;29;20068;-68
2022/08/27 01:02:35;;;;;;;5.90;3.17;;;15.40;99.90;;;;;;4874543;29;20411;-68
2022/08/27 01:05:10;;;;;;;5.10;3.15;;;15.40;99.90;;;;;;4863340;29;20051;-68
2022/08/27 01:07:39;;;;;;;6.55;3.10;;;15.40;99.90;;;;;;4877552;29;20057;-68
2022/08/27 01:10:09;;;;;;;6.10;3.10;;;15.40;99.90;;;;;;4879775;29;20057;-68
2022/08/27 01:12:36;;;;;;;7.18;3.53;;;15.50;99.90;;;;;;4873790;29;20061;-68
2022/08/27 01:15:05;;;;;;;5.45;3.30;;;15.40;99.90;;;;;;4874765;29;20056;-68
2022/08/27 01:17:31;;;;;;;7.07;3.33;;;15.50;99.90;;;;;;4870119;29;20056;-68
2022/08/27 01:20:22;;;;;;;6.35;3.50;;;15.50;99.90;;;;;;4879334;29;20351;-68
2022/08/27 01:22:53;;;;;;;7.30;3.35;;;15.50;99.90;;;;;;4859977;29;20068;-68
2022/08/27 01:25:20;;;;;;;7.87;3.37;;;15.50;99.90;;;;;;4878942;29;20517;-68
2022/08/27 01:27:46;;;;;;;7.60;3.47;;;15.50;99.90;;;;;;4878941;29;20292;-68
2022/08/27 01:30:15;;;;;;;6.05;3.30;;;15.40;99.90;;;;;;4877889;29;20064;-69
2022/08/27 01:32:42;;;;;;;5.65;3.28;;;15.40;99.90;;;;;;4865013;29;20475;-69
2022/08/27 01:35:10;;;;;;;5.50;3.15;;;15.40;99.90;;;;;;4874324;29;20046;-70
2022/08/27 01:37:36;;;;;;;7.75;3.80;;;15.40;99.90;;;;;;4874812;29;20487;-69
2022/08/27 01:40:03;;;;;;;5.47;3.70;;;15.40;99.90;;;;;;4878161;29;20049;-69
2022/08/27 01:42:45;;;;;;;5.13;3.47;;;15.40;99.90;;;;;;4877245;29;20048;-67
2022/08/27 01:45:15;;;;;;;5.00;3.28;;;15.40;99.90;;;;;;4878707;29;20105;-68
2022/08/27 01:47:41;;;;;;;3.95;3.05;;;15.40;99.90;;;;;;4875491;29;20133;-68
2022/08/27 01:50:20;;;;;;;9.98;4.03;;;15.40;99.90;;;;;;4879626;29;20064;-68
2022/08/27 01:52:45;;;;;;;6.20;2.70;;;15.40;99.90;;;;;;4881668;29;20627;-68
2022/08/27 01:55:13;;;;;;;5.50;3.35;;;15.40;99.90;;;;;;4882692;29;20132;-68
2022/08/27 01:57:40;;;;;;;6.15;3.35;;;15.40;99.90;;;;;;4881211;29;20103;-68
2022/08/27 02:00:11;;;;;;;7.32;2.90;;;15.40;99.90;;;;;;4882359;29;20072;-67
2022/08/27 02:02:37;;;;;;;4.72;3.10;;;15.40;99.90;;;;;;4877283;29;20058;-68
2022/08/27 02:05:03;;;;;;;7.90;3.03;;;15.40;99.90;;;;;;4863738;29;20140;-68
2022/08/27 02:07:28;;;;;;;5.85;3.30;;;15.40;99.90;;;;;;4876618;29;20097;-68
2022/08/27 02:09:54;;;;;;;5.70;3.35;;;15.40;99.90;;;;;;4880984;29;20509;-68
2022/08/27 02:12:20;;;;;;;5.13;3.25;;;15.40;99.90;;;;;;4880800;29;20064;-68
2022/08/27 02:14:45;;;;;;;4.57;2.67;;;15.40;99.90;;;;;;4881318;29;20060;-68
2022/08/27 02:17:11;;;;;;;4.53;2.85;;;15.10;99.90;;;;;;4880838;29;20053;-68
2022/08/27 02:19:37;;;;;;;4.95;2.90;;;15.40;99.90;;;;;;4881582;29;20511;-68
2022/08/27 02:22:03;;;;;;;8.00;2.88;;;15.50;99.90;;;;;;4881611;29;20064;-69
2022/08/27 02:24:28;;;;;;;7.05;2.97;;;15.50;99.90;;;;;;4880851;29;20065;-68
2022/08/27 02:26:54;;;;;;;6.30;3.55;;;15.40;99.90;;;;;;4880514;29;20065;-69
2022/08/27 02:29:20;;;;;;;5.55;3.08;;;15.40;99.90;;;;;;4881880;29;20140;-69
2022/08/27 02:31:46;;;;;;;5.97;2.90;;;15.50;99.90;;;;;;4880983;29;20486;-69
2022/08/27 02:34:12;;;;;;;4.75;2.55;;;15.50;99.90;;;;;;4877155;29;20049;-69
2022/08/27 02:36:37;;;;;;;7.07;3.00;;;15.50;99.90;;;;;;4862946;29;20064;-68
2022/08/27 02:39:06;;;;;;;5.85;3.47;;;15.50;99.90;;;;;;4878743;29;20455;-69
2022/08/27 02:41:32;;;;;;;5.13;3.00;;;15.50;99.90;;;;;;4862431;29;20109;-69
2022/08/27 02:43:57;;;;;;;6.53;3.42;;;15.50;99.90;;;;;;4877407;29;20057;-69
2022/08/27 02:46:23;;;;;;;6.28;3.08;;;15.50;99.90;;;;;;4862825;29;20085;-69
2022/08/27 02:48:48;;;;;;;4.68;3.00;;;15.50;99.90;;;;;;4863219;29;20065;-69
2022/08/27 02:51:14;;;;;;;6.47;3.08;;;15.40;99.90;;;;;;4876714;29;20045;-69
2022/08/27 02:53:42;;;;;;;6.15;3.45;;;15.40;99.90;;;;;;4879077;29;20063;-69
2022/08/27 02:56:09;;;;;;;4.75;2.88;;;15.40;99.90;;;;;;4880939;29;20057;-69
2022/08/27 02:58:35;;;;;;;4.97;3.20;;;15.40;99.90;;;;;;4861879;29;20054;-69
2022/08/27 03:01:01;;;;;;;9.10;3.65;;;15.50;99.90;;;;;;4862751;29;20114;-69
2022/08/27 03:03:28;;;;;;;8.43;3.10;;;15.50;99.90;;;;;;4862808;29;20157;-69
2022/08/27 03:05:56;;;;;;;5.63;3.13;;;15.50;99.90;;;;;;4876836;29;20487;-69
2022/08/27 03:08:23;;;;;;;4.72;3.17;;;15.50;99.90;;;;;;4878474;29;20057;-69
2022/08/27 03:10:50;;;;;;;6.95;3.13;;;15.40;99.90;;;;;;4880488;29;20090;-69
2022/08/27 03:13:16;;;;;;;5.30;2.88;;;15.40;99.90;;;;;;4870176;29;20113;-69
2022/08/27 03:15:42;;;;;;;4.93;2.92;;;15.40;99.90;;;;;;4862818;29;20061;-68
2022/08/27 03:18:20;;;;;;;7.63;3.45;;;15.40;99.90;;;;;;4878037;29;20557;-69
2022/08/27 03:20:55;;;;;;;3.90;2.85;;;15.40;99.90;;;;;;4880986;29;20114;-69
2022/08/27 03:23:24;;;;;;;3.63;2.80;;;15.40;99.90;;;;;;4879388;29;20056;-69
2022/08/27 03:25:55;;;;;;;4.30;3.08;;;15.40;99.90;;;;;;4881281;29;20383;-69
2022/08/27 03:28:26;;;;;;;4.35;2.90;;;15.30;99.90;;;;;;4880366;29;20537;-69
2022/08/27 03:30:57;;;;;;;6.13;3.10;;;15.30;99.90;;;;;;4875498;29;20502;-69
2022/08/27 03:33:23;;;;;;;4.20;2.78;;;15.00;99.90;;;;;;4875105;29;20049;-69
2022/08/27 03:35:49;;;;;;;4.90;3.05;;;15.20;99.90;;;;;;4880869;29;20053;-69
2022/08/27 03:38:15;;;;;;;8.07;3.17;;;15.10;99.90;;;;;;4878643;29;20076;-69
2022/08/27 03:40:44;;;;;;;5.95;3.00;;;15.10;99.90;;;;;;4880626;29;20193;-69
2022/08/27 03:43:15;;;;;;;7.38;3.50;;;15.10;99.90;;;;;;4880342;29;20191;-68
2022/08/27 03:45:45;;;;;;;4.63;3.20;;;15.00;99.90;;;;;;4876647;29;20071;-69
2022/08/27 03:48:17;;;;;;;3.88;2.90;;;15.00;99.90;;;;;;4878915;29;20118;-68
2022/08/27 03:50:48;;;;;;;3.33;3.00;;;14.90;99.90;;;;;;4880480;29;20049;-69
2022/08/27 03:53:15;;;;;;;5.15;3.15;;;14.90;99.90;;;;;;4852536;29;20055;-69
2022/08/27 03:55:41;;;;;;;4.93;2.90;;;14.90;99.90;;;;;;4877321;29;20199;-69
2022/08/27 03:58:08;;;;;;;5.03;3.35;;;14.90;99.90;;;;;;4880243;29;20212;-68
2022/08/27 04:00:36;;;;;;;5.72;3.50;;;14.90;99.90;;;;;;4877582;29;20065;-69
2022/08/27 04:03:04;;;;;;;5.20;3.53;;;14.90;99.90;;;;;;4878930;29;20069;-68
2022/08/27 04:05:33;;;;;;;6.10;2.95;;;14.90;99.90;;;;;;4877719;29;20408;-69
2022/08/27 04:08:02;;;;;;;6.03;3.45;;;14.90;99.90;;;;;;4870940;29;20053;-69
2022/08/27 04:10:28;;;;;;;5.53;3.35;;;14.90;99.90;;;;;;4861653;29;20117;-69
2022/08/27 04:12:54;;;;;;;6.25;3.38;;;14.90;99.90;;;;;;4877725;29;20064;-69
2022/08/27 04:15:20;;;;;;;5.88;3.60;;;14.80;99.90;;;;;;4877910;29;20391;-68
2022/08/27 04:17:45;;;;;;;5.70;3.38;;;14.80;99.90;;;;;;4879819;29;20490;-66
2022/08/27 04:20:11;;;;;;;3.47;2.97;;;14.80;99.90;;;;;;4878696;29;20054;-67
2022/08/27 04:22:38;;;;;;;6.65;3.40;;;14.80;99.90;;;;;;4879150;29;20114;-66
2022/08/27 04:25:05;;;;;;;5.38;3.40;;;14.70;99.90;;;;;;4878238;29;20103;-68
2022/08/27 04:27:31;;;;;;;4.88;3.25;;;14.70;99.90;;;;;;4879052;29;20068;-68
2022/08/27 04:29:58;;;;;;;6.20;3.50;;;14.70;99.90;;;;;;4879879;29;20049;-68
2022/08/27 04:32:25;;;;;;;7.25;3.50;;;14.70;99.90;;;;;;4865452;29;20162;-66
2022/08/27 04:34:55;;;;;;;8.05;3.40;;;14.60;99.90;;;;;;4879776;29;20114;-66
2022/08/27 04:37:21;;;;;;;8.35;3.40;;;14.60;99.90;;;;;;4877546;29;20053;-67
2022/08/27 04:39:47;;;;;;;5.13;3.10;;;14.50;99.90;;;;;;4878454;29;20053;-67
2022/08/27 04:42:17;;;;;;;5.82;3.47;;;14.50;99.90;;;;;;4879259;29;20057;-67
2022/08/27 04:44:44;;;;;;;4.47;3.30;;;14.50;99.90;;;;;;4877880;29;20057;-67
2022/08/27 04:47:10;;;;;;;5.75;3.40;;;14.40;99.90;;;;;;4878147;29;20053;-67
2022/08/27 04:49:36;;;;;;;7.28;3.60;;;14.40;99.90;;;;;;4879737;29;20148;-67
2022/08/27 04:52:02;;;;;;;7.22;3.80;;;14.40;99.90;;;;;;4878889;29;20139;-67
2022/08/27 04:54:28;;;;;;;4.65;3.40;;;14.40;99.90;;;;;;4879780;29;20071;-67
2022/08/27 04:56:54;;;;;;;6.53;3.58;;;14.40;99.90;;;;;;4879527;29;20045;-67
2022/08/27 04:59:19;;;;;;;5.93;3.88;;;14.40;99.90;;;;;;4878117;29;20060;-67
2022/08/27 05:01:45;;;;;;;5.35;3.47;;;14.40;99.90;;;;;;4875975;29;20055;-66
2022/08/27 05:04:13;;;;;;;6.80;3.70;;;14.40;99.90;;;;;;4879182;29;20057;-67
2022/08/27 05:06:39;;;;;;;7.10;3.60;;;14.40;99.90;;;;;;4878714;29;20068;-67
2022/08/27 05:09:05;;;;;;;5.72;3.75;;;14.40;99.90;;;;;;4879376;29;20115;-68
2022/08/27 05:11:33;;;;;;;5.10;3.45;;;14.40;99.90;;;;;;4877450;29;20135;-68
2022/08/27 05:14:02;;;;;;;7.57;3.80;;;14.40;99.90;;;;;;4873412;29;20056;-68
2022/08/27 05:16:28;;;;;;;6.80;3.50;;;14.50;99.90;;;;;;4879535;29;20398;-67
2022/08/27 05:18:54;;;;;;;6.07;3.95;;;14.60;99.90;;;;;;4879152;29;20141;-67
2022/08/27 05:21:24;;;;;;;6.40;3.75;;;14.60;99.90;;;;;;4877111;29;20404;-69
2022/08/27 05:23:51;;;;;;;6.90;3.33;;;14.60;99.90;;;;;;4879106;29;20065;-69
2022/08/27 05:26:18;;;;;;;5.53;3.60;;;14.60;99.90;;;;;;4878453;29;20063;-69
2022/08/27 05:28:44;;;;;;;5.72;3.38;;;14.60;99.90;;;;;;4869909;29;20471;-68
2022/08/27 05:31:11;;;;;;;5.03;3.15;;;14.70;99.90;;;;;;4876576;29;20137;-67
2022/08/27 05:33:38;;;;;;;5.40;3.78;;;14.70;99.90;;;;;;4875560;29;20061;-67
2022/08/27 05:36:05;;;;;;;6.57;4.10;;;14.80;99.90;;;;;;4876241;29;20053;-68
2022/08/27 05:38:31;;;;;;;5.47;3.15;;;14.80;99.90;;;;;;4875041;29;20064;-68
2022/08/27 05:41:09;;;;;;;5.90;3.42;;;14.80;99.90;;;;;;4861013;29;20456;-68
2022/08/27 05:43:36;;;;;;;4.57;3.40;;;14.80;99.90;;;;;;4829604;29;20045;-68
2022/08/27 05:46:04;;;;;;;4.03;3.20;;;14.80;99.90;;;;;;4869661;29;20152;-68
2022/08/27 05:48:31;;;;;;;8.18;3.30;;;14.70;99.90;;;;;;4874418;29;20433;-68
2022/08/27 05:50:56;;;;;;;7.40;3.70;;;14.70;99.90;;;;;;4875924;29;20410;-68
2022/08/27 05:53:22;;;;;;;5.85;3.35;;;14.80;99.90;;;;;;4864785;29;20054;-68
2022/08/27 05:55:48;;;;;;;4.78;3.70;;;15.10;99.90;;;;;;4872693;29;20037;-67
2022/08/27 06:01:05;;;;;;;4.28;3.33;;;16.40;99.90;;;;;;4870216;29;20064;-68
2022/08/27 06:03:35;;;;;;;3.95;3.00;;;16.30;99.90;;;;;;4875903;29;20053;-67
2022/08/27 06:06:10;;;;;;;6.18;3.50;;;16.30;99.90;;;;;;4875724;29;20116;-68
2022/08/27 06:08:36;;;;;;;5.40;3.30;;;16.20;99.90;;;;;;4869688;29;20068;-67
2022/08/27 06:11:04;;;;;;;4.82;2.95;;;16.20;99.90;;;;;;4875890;29;20495;-68
2022/08/27 06:13:31;;;;;;;5.43;3.10;;;16.20;99.90;;;;;;4873868;29;20057;-67
2022/08/27 06:16:06;;;;;;;4.65;2.95;;;16.20;99.90;;;;;;4871661;29;20060;-68
2022/08/27 06:18:33;;;;;;;6.20;3.30;;;16.30;99.90;;;;;;4855079;29;20068;-68
2022/08/27 06:20:59;;;;;;;9.27;3.90;;;16.30;99.90;;;;;;4868011;29;20059;-68
2022/08/27 06:23:25;;;;;;;5.15;3.13;;;16.30;99.90;;;;;;4872397;29;20156;-68
2022/08/27 06:25:51;;;;;;;7.30;2.95;;;16.30;99.90;;;;;;4869875;29;20115;-68
2022/08/27 06:28:28;;;;;;;6.53;3.30;;;16.40;99.90;;;;;;4868457;29;20406;-68
2022/08/27 06:34:24;;;;;;;6.38;2.83;;;16.60;99.90;;;;;;4873443;29;20132;-68
2022/08/27 06:36:52;;;;;;;6.38;3.15;;;16.50;99.90;;;;;;4875416;29;20561;-68
2022/08/27 06:39:18;;;;;;;4.78;2.75;;;16.60;99.90;;;;;;4871955;29;20041;-68
2022/08/27 06:41:44;;;;;;;7.00;3.15;;;16.70;99.90;;;;;;4889227;29;20589;-68
2022/08/27 06:44:10;;;;;;;3.95;2.70;;;16.80;99.90;;;;;;4869648;29;20049;-68
2022/08/27 06:46:37;;;;;;;4.55;2.63;;;16.90;99.90;;;;;;4869179;29;20092;-69
2022/08/27 06:49:02;;;;;;;4.47;2.50;;;17.10;99.90;;;;;;4871640;29;20062;-69
2022/08/27 06:51:32;;;;;;;5.97;2.80;;;17.30;99.90;;;;;;4868595;29;20939;-68
2022/08/27 06:54:04;;;;;;;3.25;2.30;;;17.50;99.90;;;;;;4847533;29;20097;-68
2022/08/27 06:56:30;;;;;;;6.57;2.53;;;17.70;99.90;;;;;;4854863;29;20068;-68
2022/08/27 06:58:58;;;;;;;7.55;2.20;;;18.00;99.90;;;;;;4869627;29;20096;-68
2022/08/27 07:01:30;;;;;;;6.88;2.53;;;18.10;99.90;;;;;;4865789;29;20046;-68
2022/08/27 07:06:55;;;;;;;5.78;2.38;;;18.30;99.90;;;;;;4862483;29;21733;-69
2022/08/27 07:09:24;;;;;;;5.72;2.53;;;18.30;99.90;;;;;;4862639;29;20133;-68
2022/08/27 07:11:50;;;;;;;3.05;1.98;;;18.40;99.90;;;;;;4867048;29;20485;-68
2022/08/27 07:14:37;;;;;;;4.93;2.00;;;18.50;99.90;;;;;;4879342;29;20088;-68
2022/08/27 07:17:02;;;;;;;4.63;2.28;;;18.60;99.90;;;;;;4879790;29;20063;-68
2022/08/27 07:19:31;;;;;;;4.80;2.05;;;18.80;99.90;;;;;;4879666;29;20061;-68
2022/08/27 07:21:57;;;;;;;4.35;1.95;;;19.00;99.90;;;;;;4877599;29;20060;-68
2022/08/27 07:24:25;;;;;;;5.13;1.70;;;19.20;99.90;;;;;;4879524;29;20408;-68
2022/08/27 07:26:54;;;;;;;5.45;1.85;;;19.30;99.90;;;;;;4861195;29;20062;-68
2022/08/27 07:29:20;;;;;;;5.68;1.70;;;19.50;99.90;;;;;;4862662;29;20129;-67
2022/08/27 07:31:46;;;;;;;6.82;1.60;;;19.60;99.90;;;;;;4873753;29;20089;-67
2022/08/27 07:34:11;;;;;;;6.72;1.70;;;19.80;99.90;;;;;;4860815;29;20061;-68
2022/08/27 07:36:37;;;;;;;6.80;1.77;;;19.90;99.90;;;;;;4862732;29;20057;-68
2022/08/27 07:39:04;;;;;;;6.50;1.77;;;19.90;99.90;;;;;;4865694;29;20133;-68
2022/08/27 07:41:31;;;;;;;4.05;1.73;;;20.00;99.90;;;;;;4869026;29;20429;-68
2022/08/27 07:46:45;;;;;;;6.13;2.05;;;20.20;99.90;;;;;;4877962;29;20439;-68
2022/08/27 07:49:10;;;;;;;4.45;1.40;;;20.30;99.90;;;;;;4879249;29;20462;-68
2022/08/27 07:51:36;;;;;;;4.50;1.42;;;20.40;99.90;;;;;;4879115;29;20085;-68
2022/08/27 07:54:02;;;;;;;3.42;1.30;;;20.60;99.90;;;;;;4880498;29;20136;-68
2022/08/27 07:56:28;;;;;;;3.58;1.17;;;20.70;99.90;;;;;;4878298;29;20101;-67
2022/08/27 07:58:53;;;;;;;3.92;1.20;;;20.90;99.90;;;;;;4880782;29;20135;-68
2022/08/27 08:01:19;;;;;;;2.95;1.20;;;21.20;99.90;;;;;;4876912;29;20048;-69
2022/08/27 08:03:45;;;;;;;4.07;1.30;;;21.30;99.90;;;;;;4874906;29;20558;-68
2022/08/27 08:06:13;;;;;;;5.47;1.60;;;21.40;99.90;;;;;;4878857;29;20057;-68
2022/08/27 08:08:39;;;;;;;4.88;1.52;;;21.30;99.90;;;;;;4879351;29;20414;-68
2022/08/27 08:11:07;;;;;;;4.07;1.30;;;21.20;99.90;;;;;;4878995;29;20053;-68
2022/08/27 08:13:33;;;;;;;4.65;1.33;;;21.40;99.90;;;;;;4877522;29;20044;-68
2022/08/27 08:15:58;;;;;;;2.80;1.50;;;21.30;99.90;;;;;;4878525;29;20064;-68
2022/08/27 08:18:25;;;;;;;3.13;1.15;;;21.40;99.90;;;;;;4873238;29;20546;-68
2022/08/27 08:20:51;;;;;;;5.25;1.80;;;21.30;99.90;;;;;;4860707;29;20067;-68
2022/08/27 08:23:17;;;;;;;3.08;1.20;;;21.40;99.90;;;;;;4874788;29;20049;-68
2022/08/27 08:25:42;;;;;;;4.70;1.38;;;21.40;99.90;;;;;;4872117;29;20409;-68
2022/08/27 08:28:10;;;;;;;6.40;1.58;;;21.50;99.90;;;;;;4875824;29;20059;-68
2022/08/27 08:30:36;;;;;;;3.70;1.30;;;21.50;99.90;;;;;;4864839;29;20521;-68
2022/08/27 08:33:02;;;;;;;6.65;1.50;;;21.40;99.90;;;;;;4876887;29;20060;-68
2022/08/27 08:35:27;;;;;;;7.30;1.30;;;21.30;99.90;;;;;;4838936;29;20045;-68
2022/08/27 08:37:53;;;;;;;4.35;1.42;;;21.00;99.90;;;;;;4862486;29;20447;-68
2022/08/27 08:40:35;;;;;;;3.90;1.15;;;21.00;99.90;;;;;;4881236;29;20091;-68
2022/08/27 08:43:04;;;;;;;4.57;1.50;;;21.10;99.90;;;;;;4867072;29;20064;-68
2022/08/27 08:45:33;;;;;;;3.38;1.15;;;21.10;99.90;;;;;;4873304;29;20143;-68
2022/08/27 08:48:13;;;;;;;4.53;1.10;;;21.20;99.90;;;;;;4869184;29;20054;-68
2022/08/27 08:51:00;;;;;;;3.53;1.05;;;21.30;99.90;;;;;;4865231;29;20144;-68
2022/08/27 08:54:02;;;;;;;2.65;1.10;;;21.40;99.90;;;;;;4866812;29;20056;-67
2022/08/27 08:56:49;;;;;;;2.83;1.02;;;21.60;99.90;;;;;;4884599;29;20064;-68
2022/08/27 08:59:30;;;;;;;4.60;1.50;;;21.70;99.90;;;;;;4869852;29;20049;-68
2022/08/27 09:01:57;;;;;;;3.93;1.20;;;21.90;99.90;;;;;;4867437;29;20085;-68
2022/08/27 09:04:25;;;;;;;4.55;1.55;;;22.10;99.90;;;;;;4880047;29;20049;-69
2022/08/27 09:06:59;;;;;;;3.47;1.33;;;22.30;99.90;;;;;;4869133;29;20075;-68
2022/08/27 09:09:49;;;;;;;6.75;1.60;;;22.30;99.90;;;;;;4888630;29;20062;-68
2022/08/27 09:12:21;;;;;;;3.38;1.33;;;22.30;99.90;;;;;;4892205;29;20061;-68
2022/08/27 09:15:12;;;;;;;4.10;1.38;;;22.30;99.90;;;;;;4877781;29;20064;-68
2022/08/27 09:17:40;;;;;;;3.97;1.27;;;22.20;99.90;;;;;;4861429;29;20060;-68
2022/08/27 09:20:07;;;;;;;11.07;1.77;;;22.10;99.90;;;;;;4877023;29;20305;-68
2022/08/27 09:22:57;;;;;;;4.82;1.30;;;22.10;99.90;;;;;;4874726;29;20057;-68
2022/08/27 09:25:33;;;;;;;3.83;1.25;;;22.00;99.90;;;;;;4870781;29;20056;-68
2022/08/27 09:28:04;;;;;;;5.00;2.03;;;22.00;99.90;;;;;;4872711;29;20055;-68
2022/08/27 09:30:40;;;;;;;5.05;1.38;;;22.10;99.90;;;;;;4869932;29;20068;-68
2022/08/27 09:33:05;;;;;;;5.35;1.40;;;22.30;99.90;;;;;;4867541;29;20151;-68
2022/08/27 09:35:45;;;;;;;5.13;1.55;;;22.40;99.90;;;;;;4868843;29;20546;-68
2022/08/27 09:38:29;;;;;;;3.47;1.00;;;22.50;99.90;;;;;;4868440;29;20052;-68
2022/08/27 09:40:59;;;;;;;5.47;1.38;;;22.40;99.90;;;;;;4868767;29;20080;-68
2022/08/27 09:43:27;;;;;;;4.22;1.20;;;22.40;99.90;;;;;;4866626;29;20068;-67
2022/08/27 09:45:58;;;;;;;6.63;1.50;;;22.40;99.90;;;;;;4870325;29;20057;-67
2022/08/27 09:48:30;;;;;;;5.55;1.40;;;22.40;99.90;;;;;;4864735;29;20045;-68
2022/08/27 09:51:08;;;;;;;4.15;1.38;;;22.60;99.90;;;;;;4868499;29;20049;-68
2022/08/27 09:53:49;;;;;;;4.10;1.10;;;22.70;99.90;;;;;;4869165;29;20387;-67
2022/08/27 09:56:26;;;;;;;3.47;1.10;;;22.70;99.90;;;;;;4870182;29;20098;-68
2022/08/27 09:59:11;;;;;;;4.00;1.30;;;22.80;99.90;;;;;;4861959;29;20388;-69
2022/08/27 10:01:55;;;;;;;4.30;1.20;;;22.70;99.90;;;;;;4868403;29;20064;-68
2022/08/27 10:04:32;;;;;;;4.40;1.23;;;22.80;99.90;;;;;;4889667;29;20056;-68
2022/08/27 10:07:10;;;;;;;1.73;1.23;;;22.60;99.90;;;;;;4870592;29;20104;-68
2022/08/27 10:09:42;;;;;;;2.92;1.05;;;22.70;99.90;;;;;;4864875;29;20057;-68
2022/08/27 10:12:13;;;;;;;5.22;1.10;;;22.70;99.90;;;;;;4866817;29;20109;-68
2022/08/27 10:14:51;;;;;;;4.70;1.30;;;22.90;99.80;;;;;;4881374;29;20440;-67
2022/08/27 10:17:26;;;;;;;3.80;1.17;;;22.90;99.90;;;;;;4878558;29;20065;-67
2022/08/27 10:20:01;;;;;;;3.92;1.08;;;22.90;99.20;;;;;;4876218;29;20064;-68
2022/08/27 10:23:09;;;;;;;4.00;1.30;;;22.90;98.50;;;;;;4878052;29;20084;-68
2022/08/27 10:25:43;;;;;;;5.00;1.33;;;22.80;99.10;;;;;;4868007;29;20057;-67
2022/08/27 10:28:18;;;;;;;5.32;1.10;;;22.80;99.90;;;;;;4875123;29;20127;-68
2022/08/27 10:31:07;;;;;;;2.92;1.10;;;22.80;99.90;;;;;;4875401;29;20103;-68
2022/08/27 10:33:51;;;;;;;6.82;1.60;;;22.80;99.60;;;;;;4870362;29;20140;-68
2022/08/27 10:37:07;;;;;;;4.60;1.33;;;22.80;98.80;;;;;;4871295;29;20057;-68
2022/08/27 10:39:50;;;;;;;3.75;1.00;;;22.70;98.40;;;;;;4833685;29;20072;-68
2022/08/27 10:42:31;;;;;;;3.70;0.90;;;22.70;99.40;;;;;;4835303;29;20057;-68
2022/08/27 10:45:16;;;;;;;4.53;1.30;;;22.60;99.60;;;;;;4864212;29;20056;-68
2022/08/27 10:47:59;;;;;;;4.00;1.08;;;22.60;99.80;;;;;;4869912;29;20037;-68
2022/08/27 10:50:27;;;;;;;3.47;1.00;;;22.60;98.00;;;;;;4870355;29;20054;-68
2022/08/27 10:53:18;;;;;;;3.10;1.10;;;22.60;99.00;;;;;;4867465;29;20391;-68
2022/08/27 10:55:51;;;;;;;4.55;1.23;;;22.60;97.40;;;;;;4872438;29;20056;-68
2022/08/27 10:58:24;;;;;;;5.85;1.40;;;22.70;99.10;;;;;;4869109;29;20109;-68
2022/08/27 11:01:01;;;;;;;4.18;1.20;;;22.70;98.60;;;;;;4886270;29;20510;-68
2022/08/27 11:03:30;;;;;;;3.95;1.17;;;22.80;97.90;;;;;;4891139;29;20140;-67
2022/08/27 11:05:59;;;;;;;3.08;1.25;;;22.90;98.00;;;;;;4897605;29;20056;-68
2022/08/27 11:08:33;;;;;;;4.93;1.02;;;23.00;97.60;;;;;;4891054;29;20053;-68
2022/08/27 11:11:09;;;;;;;5.38;1.30;;;22.90;96.70;;;;;;4899288;29;20048;-68
2022/08/27 11:13:40;;;;;;;5.05;1.02;;;23.00;97.30;;;;;;4899044;29;20223;-68
2022/08/27 11:16:20;;;;;;;4.10;1.20;;;22.90;96.80;;;;;;4887007;29;20052;-68
2022/08/27 11:18:50;;;;;;;2.83;0.95;;;23.00;95.20;;;;;;4888275;29;20438;-68
2022/08/27 11:21:42;;;;;;;4.35;1.20;;;22.90;94.70;;;;;;4887159;29;20056;-68
2022/08/27 11:24:13;;;;;;;5.07;1.70;;;22.90;93.50;;;;;;4887827;29;20068;-68
2022/08/27 11:26:41;;;;;;;4.03;1.08;;;23.00;93.30;;;;;;4889370;29;20068;-69
2022/08/27 11:29:32;;;;;;;6.55;1.20;;;23.00;93.20;;;;;;4890495;29;20155;-69
2022/08/27 11:32:09;;;;;;;3.85;1.30;;;23.10;93.30;;;;;;4898462;29;20096;-68
2022/08/27 11:34:54;;;;;;;4.38;1.30;;;23.10;93.30;;;;;;4896479;29;20438;-68
2022/08/27 11:37:41;;;;;;;2.88;1.00;;;23.10;90.90;;;;;;4899170;29;20052;-68
2022/08/27 11:40:27;;;;;;;5.82;1.25;;;23.10;90.10;;;;;;4897331;29;20087;-68
2022/08/27 11:43:06;;;;;;;4.78;1.20;;;23.10;90.60;;;;;;4897811;29;20083;-68
2022/08/27 11:45:37;;;;;;;4.68;1.45;;;23.20;91.00;;;;;;4891844;29;20060;-68
2022/08/27 11:48:29;;;;;;;4.13;1.27;;;23.20;90.70;;;;;;4898075;29;20342;-69
2022/08/27 11:50:59;;;;;;;3.63;1.45;;;23.30;91.70;;;;;;4896731;29;20127;-68
2022/08/27 11:53:37;;;;;;;3.33;1.52;;;23.30;92.20;;;;;;4895998;29;20053;-68
2022/08/27 11:56:40;;;;;;;6.75;1.40;;;23.40;92.70;;;;;;4888301;29;20079;-69
2022/08/27 11:59:26;;;;;;;3.65;1.35;;;23.50;92.00;;;;;;4872372;29;20068;-69
2022/08/27 12:02:08;;;;;;;5.07;1.38;;;23.60;91.30;;;;;;4877872;29;20072;-68
2022/08/27 12:04:37;;;;;;;5.53;1.40;;;23.50;90.20;;;;;;4867636;29;20073;-68
2022/08/27 12:07:21;;;;;;;7.40;1.50;;;23.40;90.50;;;;;;4868302;29;20088;-68
2022/08/27 12:09:56;;;;;;;5.63;1.25;;;23.40;91.40;;;;;;4870520;29;20132;-68
2022/08/27 12:12:42;;;;;;;4.03;1.30;;;23.30;91.40;;;;;;4869500;29;20443;-68
2022/08/27 12:15:21;;;;;;;4.38;1.20;;;23.30;91.40;;;;;;4869111;29;20107;-68
2022/08/27 12:18:13;;;;;;;4.75;1.50;;;23.20;90.30;;;;;;4877989;29;20454;-68
2022/08/27 12:21:20;;;;;;;4.72;1.10;;;23.40;89.30;;;;;;4867571;29;20582;-68
2022/08/27 12:24:12;;;;;;;5.20;1.30;;;23.40;88.80;;;;;;4886755;29;20082;-69
2022/08/27 12:26:41;;;;;;;2.83;1.00;;;23.30;84.60;;;;;;4861542;29;20113;-69
2022/08/27 12:29:23;;;;;;;3.25;1.15;;;23.20;88.20;;;;;;4852610;29;20057;-68
2022/08/27 12:31:53;;;;;;;4.55;0.93;;;23.00;86.00;;;;;;4871897;29;20061;-68
2022/08/27 12:34:26;;;;;;;7.65;1.15;;;22.90;88.40;;;;;;4874129;29;20101;-68
2022/08/27 12:36:53;;;;;;;5.82;1.35;;;22.90;85.40;;;;;;4870266;29;20052;-67
2022/08/27 12:39:27;;;;;;;4.05;1.20;;;22.90;86.90;;;;;;4868554;29;20136;-68
2022/08/27 12:41:52;;;;;;;3.92;1.13;;;22.90;85.00;;;;;;4868807;29;20494;-68
2022/08/27 12:44:30;;;;;;;7.25;1.90;;;23.00;86.00;;;;;;4868722;29;20053;-68
2022/08/27 12:47:15;;;;;;;3.38;1.17;;;23.20;85.20;;;;;;4864665;29;20060;-68
2022/08/27 12:49:47;;;;;;;4.32;1.05;;;23.20;87.10;;;;;;4872806;29;20077;-68
2022/08/27 12:52:32;;;;;;;3.70;1.05;;;23.20;87.10;;;;;;4851842;29;20049;-67
2022/08/27 12:54:57;;;;;;;3.92;1.20;;;23.10;87.90;;;;;;4870040;29;20412;-68
2022/08/27 12:57:47;;;;;;;4.07;1.05;;;23.10;88.90;;;;;;4869556;29;20053;-68
2022/08/27 13:00:22;;;;;;;4.50;0.85;;;23.00;87.50;;;;;;4873331;29;20057;-68
2022/08/27 13:03:27;;;;;;;3.42;1.10;;;22.70;89.40;;;;;;4874385;29;20134;-68
2022/08/27 13:14:57;;;;;;;3.92;1.10;;;22.60;90.10;;;;;;4872258;29;20064;-68
2022/08/27 13:18:17;;;;;;;4.55;1.45;;;22.90;86.70;;;;;;4867919;29;20121;-68
2022/08/27 13:20:47;;;;;;;4.80;1.15;;;23.10;86.50;;;;;;4868701;29;20064;-68
2022/08/27 13:24:03;;;;;;;5.05;1.10;;;23.30;85.10;;;;;;4880010;29;20053;-68
2022/08/27 13:30:28;;;;;;;5.28;1.20;;;23.20;80.00;;;;;;4888220;29;20489;-67
2022/08/27 13:32:55;;;;;;;3.28;1.10;;;23.00;76.40;;;;;;4883188;29;20053;-68
2022/08/27 13:35:23;;;;;;;3.50;1.05;;;22.90;79.20;;;;;;4883835;29;20112;-68
2022/08/27 13:37:52;;;;;;;4.55;1.08;;;22.90;80.10;;;;;;4868778;29;20053;-69